Time;durP1;ratioP1;P1;durP2;ratioP2;P2;SDS_P1;SDS_P2;PMS_P1;PMS_P2;Temp;Humidity;BMP_temperature;BMP_pressure;BME280_temperature;BME280_humidity;BME280_pressure;Samples;Min_cycle;Max_cycle;Signal;HPM_P1;HPM_P2
2023/04/29 00:00:05;;;;;;;61.45;33.85;;;9.40;99.90;;;;;;4991885;28;212463;-69
2023/04/29 00:02:32;;;;;;;62.05;34.60;;;9.40;99.90;;;;;;5049964;28;20057;-70
2023/04/29 00:04:58;;;;;;;58.72;32.47;;;9.40;99.90;;;;;;4983793;28;213612;-69
2023/04/29 00:07:24;;;;;;;55.47;33.40;;;9.40;99.90;;;;;;5056503;28;20060;-69
2023/04/29 00:09:50;;;;;;;55.35;32.88;;;9.40;99.90;;;;;;4997861;28;210605;-69
2023/04/29 00:12:17;;;;;;;58.03;33.33;;;9.40;99.90;;;;;;5059239;28;20056;-69
2023/04/29 00:14:43;;;;;;;57.75;32.22;;;9.30;99.90;;;;;;4995507;28;214543;-69
2023/04/29 00:17:09;;;;;;;55.78;33.78;;;9.30;99.90;;;;;;5054805;28;20075;-69
2023/04/29 00:19:35;;;;;;;52.78;33.63;;;9.30;99.90;;;;;;4995375;28;210347;-69
2023/04/29 00:22:01;;;;;;;55.10;33.00;;;9.30;99.90;;;;;;5057201;28;20075;-68
2023/04/29 00:24:28;;;;;;;61.70;33.22;;;9.30;99.90;;;;;;4995457;28;215688;-68
2023/04/29 00:26:54;;;;;;;60.75;33.75;;;9.30;99.90;;;;;;5060195;28;20068;-68
2023/04/29 00:29:22;;;;;;;56.63;32.72;;;9.30;99.90;;;;;;4998808;28;209508;-68
2023/04/29 00:31:48;;;;;;;59.05;34.22;;;9.30;99.90;;;;;;5058993;28;20067;-68
2023/04/29 00:34:15;;;;;;;59.67;34.80;;;9.20;99.90;;;;;;5013401;28;212447;-69
2023/04/29 00:36:41;;;;;;;58.20;34.70;;;9.20;99.90;;;;;;5063567;28;20055;-69
2023/04/29 00:39:07;;;;;;;55.78;33.85;;;9.20;99.90;;;;;;5006175;28;213969;-69
2023/04/29 00:41:34;;;;;;;61.20;35.80;;;9.20;99.90;;;;;;5049589;28;20057;-69
2023/04/29 00:44:01;;;;;;;56.55;33.83;;;9.20;99.90;;;;;;5008682;28;205804;-69
2023/04/29 00:46:27;;;;;;;61.92;35.60;;;9.20;99.90;;;;;;5086997;28;20408;-69
2023/04/29 00:48:53;;;;;;;64.32;36.20;;;9.10;99.90;;;;;;5018099;28;212519;-69
2023/04/29 00:51:19;;;;;;;61.72;37.22;;;9.10;99.90;;;;;;5077640;28;20048;-69
2023/04/29 00:53:45;;;;;;;59.67;36.05;;;9.10;99.90;;;;;;5017374;28;209205;-69
2023/04/29 00:56:13;;;;;;;64.28;36.00;;;9.10;99.90;;;;;;5078724;28;20506;-68
2023/04/29 00:58:44;;;;;;;65.30;36.72;;;9.20;99.90;;;;;;5006608;28;213094;-70
2023/04/29 01:01:11;;;;;;;64.50;36.83;;;9.10;99.90;;;;;;5067089;28;20066;-69
2023/04/29 01:03:37;;;;;;;64.47;36.30;;;9.10;99.90;;;;;;5016332;28;215680;-68
2023/04/29 01:06:16;;;;;;;65.22;36.25;;;9.10;99.90;;;;;;5057730;28;20051;-68
2023/04/29 01:09:00;;;;;;;62.10;34.58;;;9.10;99.90;;;;;;5015393;28;210367;-68
2023/04/29 01:11:33;;;;;;;64.93;33.70;;;9.10;99.90;;;;;;5081152;28;20052;-68
2023/04/29 01:14:01;;;;;;;61.10;33.55;;;9.10;99.90;;;;;;5020818;28;213596;-69
2023/04/29 01:16:41;;;;;;;60.00;32.15;;;9.10;99.90;;;;;;5080594;28;20498;-68
2023/04/29 01:19:43;;;;;;;53.25;30.85;;;9.10;99.90;;;;;;5018666;28;215983;-69
2023/04/29 01:22:09;;;;;;;54.53;30.95;;;9.10;99.90;;;;;;5070246;28;20083;-70
2023/04/29 01:24:35;;;;;;;57.47;29.67;;;9.00;99.90;;;;;;5024325;28;164899;-69
2023/04/29 01:27:26;;;;;;;60.78;30.52;;;9.10;99.90;;;;;;5073605;28;20064;-70
2023/04/29 01:30:03;;;;;;;45.70;28.80;;;9.10;99.90;;;;;;5023126;28;210274;-70
2023/04/29 01:32:57;;;;;;;51.90;28.25;;;9.10;99.90;;;;;;5073248;28;20048;-69
2023/04/29 01:35:37;;;;;;;53.45;28.27;;;9.10;99.90;;;;;;5000494;28;210519;-69
2023/04/29 01:38:40;;;;;;;47.42;27.30;;;9.00;99.90;;;;;;5060269;28;219952;-70
2023/04/29 01:41:26;;;;;;;46.40;25.83;;;9.00;99.90;;;;;;5025904;28;99812;-69
2023/04/29 01:43:57;;;;;;;42.80;25.20;;;9.00;99.90;;;;;;5013844;28;214720;-69
2023/04/29 01:46:23;;;;;;;47.03;25.08;;;9.00;99.90;;;;;;5067054;28;20057;-67
2023/04/29 01:48:53;;;;;;;39.67;24.45;;;9.00;99.90;;;;;;5023652;28;215534;-69
2023/04/29 01:51:19;;;;;;;44.00;23.80;;;9.00;99.90;;;;;;5059083;28;20056;-69
2023/04/29 01:53:46;;;;;;;46.20;24.60;;;9.00;99.90;;;;;;5014203;28;209734;-69
2023/04/29 01:56:12;;;;;;;36.25;23.63;;;9.00;99.90;;;;;;5064538;28;20064;-69
2023/04/29 01:58:38;;;;;;;39.85;23.23;;;9.00;99.90;;;;;;5004472;28;211150;-70
2023/04/29 02:01:05;;;;;;;41.20;22.88;;;9.00;99.90;;;;;;5067280;28;20070;-70
2023/04/29 02:03:31;;;;;;;35.72;23.25;;;9.00;99.90;;;;;;5014416;28;213685;-70
2023/04/29 02:05:58;;;;;;;42.40;22.88;;;9.00;99.90;;;;;;5069614;28;20518;-69
2023/04/29 02:08:24;;;;;;;44.42;22.65;;;9.00;99.90;;;;;;5014845;28;215275;-69
2023/04/29 02:10:54;;;;;;;37.95;22.85;;;9.00;99.90;;;;;;5075524;28;20056;-70
2023/04/29 02:13:21;;;;;;;40.47;23.73;;;9.00;99.90;;;;;;5023555;28;212347;-69
2023/04/29 02:15:47;;;;;;;37.50;22.67;;;9.00;99.90;;;;;;5060164;28;20044;-70
2023/04/29 02:18:13;;;;;;;45.03;23.50;;;9.00;99.90;;;;;;5017278;28;212724;-69
2023/04/29 02:20:40;;;;;;;41.08;24.27;;;9.00;99.90;;;;;;5062086;28;20507;-69
2023/04/29 02:23:06;;;;;;;42.55;24.48;;;9.00;99.90;;;;;;5046327;28;216203;-69
2023/04/29 02:25:32;;;;;;;41.10;24.80;;;9.00;99.90;;;;;;5039425;28;206842;-69
2023/04/29 02:27:58;;;;;;;40.97;24.20;;;9.00;99.90;;;;;;5062472;28;20056;-70
2023/04/29 02:30:24;;;;;;;39.45;23.02;;;9.00;99.90;;;;;;5000740;28;208214;-69
2023/04/29 02:32:50;;;;;;;38.45;24.35;;;9.00;99.90;;;;;;5074695;28;20142;-70
2023/04/29 02:35:16;;;;;;;37.22;25.42;;;9.00;99.90;;;;;;4991249;28;209919;-70
2023/04/29 02:37:43;;;;;;;42.78;23.60;;;9.00;99.90;;;;;;5079925;28;20418;-70
2023/04/29 02:40:10;;;;;;;46.58;24.08;;;8.90;99.90;;;;;;5036226;28;209369;-70
2023/04/29 02:42:36;;;;;;;43.13;24.92;;;8.90;99.90;;;;;;5076637;28;20045;-70
2023/04/29 02:45:03;;;;;;;41.03;25.33;;;8.90;99.90;;;;;;5016727;28;206793;-69
2023/04/29 02:47:29;;;;;;;42.38;24.95;;;8.90;99.90;;;;;;5078700;28;21485;-69
2023/04/29 02:49:55;;;;;;;47.00;25.25;;;8.90;99.90;;;;;;5008533;28;209297;-69
2023/04/29 02:52:21;;;;;;;38.22;24.13;;;8.90;99.90;;;;;;5078165;28;20048;-70
2023/04/29 02:54:47;;;;;;;43.60;24.00;;;8.80;99.90;;;;;;5013766;28;207211;-70
2023/04/29 02:57:13;;;;;;;43.00;23.55;;;8.80;99.90;;;;;;5083788;28;20063;-69
2023/04/29 02:59:39;;;;;;;40.20;23.88;;;8.80;99.90;;;;;;5018563;28;216393;-71
2023/04/29 03:02:06;;;;;;;40.22;24.77;;;8.80;99.90;;;;;;5076659;28;20549;-70
2023/04/29 03:04:32;;;;;;;44.22;25.20;;;8.70;99.90;;;;;;5016286;28;212241;-70
2023/04/29 03:06:58;;;;;;;42.22;24.80;;;8.70;99.90;;;;;;5079853;28;20043;-70
2023/04/29 03:09:24;;;;;;;40.55;24.77;;;8.70;99.90;;;;;;5016549;28;224260;-70
2023/04/29 03:11:50;;;;;;;38.13;24.70;;;8.70;99.90;;;;;;5080529;28;20056;-70
2023/04/29 03:14:16;;;;;;;42.92;24.85;;;8.70;99.90;;;;;;5027079;28;209820;-70
2023/04/29 03:16:43;;;;;;;46.75;26.13;;;8.70;99.90;;;;;;5081733;28;20055;-70
2023/04/29 03:19:09;;;;;;;47.47;26.38;;;8.70;99.90;;;;;;5010857;28;209840;-70
2023/04/29 03:21:35;;;;;;;39.60;26.27;;;8.70;99.90;;;;;;5086192;28;20066;-70
2023/04/29 03:24:01;;;;;;;51.55;25.55;;;8.60;99.90;;;;;;5020962;28;208473;-71
2023/04/29 03:26:27;;;;;;;46.95;26.42;;;8.60;99.90;;;;;;5071112;28;20061;-70
2023/04/29 03:28:53;;;;;;;48.22;26.40;;;8.60;99.90;;;;;;5023701;27;206165;-70
2023/04/29 03:31:21;;;;;;;54.30;26.67;;;8.60;99.90;;;;;;5073863;28;20702;-70
2023/04/29 03:33:47;;;;;;;47.25;26.85;;;8.60;99.90;;;;;;5000163;28;230280;-70
2023/04/29 03:36:14;;;;;;;48.88;27.02;;;8.60;99.90;;;;;;5041671;28;20055;-70
2023/04/29 03:38:40;;;;;;;50.78;28.00;;;8.60;99.90;;;;;;4999771;28;210809;-69
2023/04/29 03:41:06;;;;;;;44.17;26.63;;;8.60;99.90;;;;;;5059892;28;20063;-69
2023/04/29 03:43:33;;;;;;;50.08;28.25;;;8.60;99.90;;;;;;5007509;28;210371;-70
2023/04/29 03:45:59;;;;;;;48.97;27.50;;;8.60;99.90;;;;;;5063343;28;20502;-70
2023/04/29 03:48:25;;;;;;;47.55;28.98;;;8.60;99.90;;;;;;5003504;28;210371;-70
2023/04/29 03:50:51;;;;;;;49.28;28.20;;;8.60;99.90;;;;;;5050107;28;20075;-69
2023/04/29 03:53:17;;;;;;;41.65;25.00;;;8.60;99.90;;;;;;5027457;28;216937;-70
2023/04/29 03:55:43;;;;;;;46.90;27.35;;;8.60;99.90;;;;;;5049654;28;20067;-69
2023/04/29 03:58:09;;;;;;;51.67;27.37;;;8.50;99.90;;;;;;5030429;28;212735;-69
2023/04/29 04:00:35;;;;;;;45.40;25.88;;;8.60;99.90;;;;;;5039658;28;250690;-69
2023/04/29 04:03:02;;;;;;;42.96;25.20;;;8.60;99.90;;;;;;5077641;28;213232;-70
2023/04/29 04:05:28;;;;;;;44.75;24.08;;;8.60;99.90;;;;;;5016756;28;127060;-70
2023/04/29 04:07:54;;;;;;;43.90;24.27;;;8.60;99.90;;;;;;5075101;28;20048;-70
2023/04/29 04:10:20;;;;;;;40.20;23.85;;;8.60;99.90;;;;;;5000686;28;213156;-70
2023/04/29 04:12:46;;;;;;;46.83;23.02;;;8.60;99.90;;;;;;5078633;28;20051;-70
2023/04/29 04:15:12;;;;;;;41.42;23.08;;;8.60;99.90;;;;;;5008161;28;218706;-70
2023/04/29 04:17:39;;;;;;;44.00;22.48;;;8.60;99.90;;;;;;5079182;28;20079;-69
2023/04/29 04:20:05;;;;;;;43.85;22.83;;;8.60;99.90;;;;;;5029816;28;216511;-71
2023/04/29 04:22:31;;;;;;;42.28;22.55;;;8.70;99.90;;;;;;5079709;28;20060;-69
2023/04/29 04:24:57;;;;;;;43.08;21.85;;;8.70;99.90;;;;;;5020260;28;209690;-69
2023/04/29 04:27:23;;;;;;;43.05;21.00;;;8.70;99.90;;;;;;5082560;28;20048;-70
2023/04/29 04:29:53;;;;;;;40.05;21.33;;;8.60;99.90;;;;;;5018051;28;207305;-71
2023/04/29 04:32:22;;;;;;;41.35;19.80;;;8.70;99.90;;;;;;5079042;28;20082;-71
2023/04/29 04:34:49;;;;;;;36.95;19.67;;;8.70;99.90;;;;;;5014939;28;206595;-70
2023/04/29 04:37:15;;;;;;;33.05;19.05;;;8.70;99.90;;;;;;5077814;28;20055;-71
2023/04/29 04:39:41;;;;;;;37.80;19.52;;;8.70;99.90;;;;;;4984331;28;205822;-70
2023/04/29 04:42:07;;;;;;;42.42;19.98;;;8.70;99.90;;;;;;5052942;28;20063;-70
2023/04/29 04:44:33;;;;;;;37.63;19.70;;;8.70;99.90;;;;;;5017973;28;219842;-70
2023/04/29 04:47:00;;;;;;;34.30;18.67;;;8.70;99.90;;;;;;5073181;28;20052;-70
2023/04/29 04:49:26;;;;;;;36.65;19.02;;;8.70;99.90;;;;;;5029565;28;217434;-70
2023/04/29 04:51:52;;;;;;;38.58;20.17;;;8.70;99.90;;;;;;5076526;28;20060;-69
2023/04/29 04:54:19;;;;;;;34.85;19.58;;;8.70;99.90;;;;;;5011997;28;213204;-69
2023/04/29 04:56:45;;;;;;;38.50;19.45;;;8.70;99.90;;;;;;5069627;28;20399;-70
2023/04/29 04:59:11;;;;;;;36.20;19.20;;;8.70;99.90;;;;;;4996144;28;222079;-69
2023/04/29 05:01:37;;;;;;;40.40;20.08;;;8.70;99.90;;;;;;5074433;28;20063;-70
2023/04/29 05:04:03;;;;;;;37.60;20.77;;;8.70;99.90;;;;;;5014352;28;218730;-70
2023/04/29 05:06:30;;;;;;;37.92;19.38;;;8.70;99.90;;;;;;5062076;28;20055;-70
2023/04/29 05:08:56;;;;;;;37.50;19.27;;;8.70;99.90;;;;;;5020433;28;212123;-69
2023/04/29 05:11:22;;;;;;;31.70;18.25;;;8.70;99.90;;;;;;5069903;28;20063;-69
2023/04/29 05:13:48;;;;;;;38.25;20.25;;;8.70;99.90;;;;;;5005554;28;212977;-69
2023/04/29 05:16:16;;;;;;;34.33;18.73;;;8.80;99.90;;;;;;5047618;28;20044;-70
2023/04/29 05:18:44;;;;;;;30.83;18.65;;;8.80;99.90;;;;;;5005908;28;215768;-70
2023/04/29 05:21:11;;;;;;;30.35;17.40;;;8.80;99.90;;;;;;5058591;28;20731;-69
2023/04/29 05:23:37;;;;;;;38.10;17.00;;;8.80;99.90;;;;;;4997529;28;205983;-68
2023/04/29 05:26:03;;;;;;;29.30;15.93;;;8.80;99.90;;;;;;5048327;28;20060;-69
2023/04/29 05:28:29;;;;;;;33.35;16.38;;;8.80;99.90;;;;;;5001401;28;210623;-69
2023/04/29 05:30:56;;;;;;;29.33;15.25;;;8.80;99.90;;;;;;5027355;28;20052;-69
2023/04/29 05:33:22;;;;;;;30.80;16.45;;;8.80;99.90;;;;;;5005048;28;209040;-70
2023/04/29 05:35:48;;;;;;;27.38;15.00;;;8.80;99.90;;;;;;5028548;28;20057;-69
2023/04/29 05:38:14;;;;;;;30.15;15.30;;;8.90;99.90;;;;;;4994566;28;218042;-69
2023/04/29 05:40:40;;;;;;;31.45;15.50;;;8.90;99.90;;;;;;5037668;28;20522;-70
2023/04/29 05:43:06;;;;;;;26.08;14.48;;;8.90;99.90;;;;;;5021088;28;226832;-70
2023/04/29 05:45:32;;;;;;;30.35;14.65;;;8.90;99.90;;;;;;5014046;28;208228;-70
2023/04/29 05:47:58;;;;;;;29.95;14.23;;;8.90;99.90;;;;;;5069985;28;20705;-70
2023/04/29 05:50:24;;;;;;;24.88;14.30;;;8.90;99.90;;;;;;4988824;28;168941;-69
2023/04/29 05:52:50;;;;;;;25.83;13.73;;;9.00;99.90;;;;;;5056343;28;20044;-70
2023/04/29 05:55:17;;;;;;;27.92;15.02;;;9.00;99.90;;;;;;5017084;28;215969;-71
2023/04/29 05:57:43;;;;;;;27.77;13.75;;;9.00;99.90;;;;;;5054772;28;20057;-70
2023/04/29 06:00:09;;;;;;;26.13;14.38;;;9.10;99.90;;;;;;4984461;28;210951;-71
2023/04/29 06:02:38;;;;;;;30.55;14.27;;;9.10;99.90;;;;;;5075438;28;20053;-71
2023/04/29 06:05:05;;;;;;;21.52;13.57;;;9.20;99.90;;;;;;5000870;28;211088;-71
2023/04/29 06:07:31;;;;;;;24.63;13.43;;;9.10;99.90;;;;;;5070976;28;20063;-70
2023/04/29 06:09:57;;;;;;;23.80;13.30;;;9.20;99.90;;;;;;5014978;28;206919;-71
2023/04/29 06:12:23;;;;;;;24.23;13.15;;;9.20;99.90;;;;;;5075659;28;20048;-70
2023/04/29 06:14:49;;;;;;;22.92;13.93;;;9.30;99.90;;;;;;5010624;28;210239;-71
2023/04/29 06:17:15;;;;;;;24.67;12.88;;;9.30;99.90;;;;;;5082412;28;20056;-70
2023/04/29 06:19:41;;;;;;;24.70;12.40;;;9.40;99.90;;;;;;5013053;28;210778;-70
2023/04/29 06:22:07;;;;;;;24.58;13.52;;;9.50;99.90;;;;;;5083152;28;20052;-70
2023/04/29 06:24:33;;;;;;;23.13;12.95;;;9.50;99.90;;;;;;5022084;28;213062;-70
2023/04/29 06:27:00;;;;;;;19.73;12.73;;;9.70;99.90;;;;;;5076379;28;20055;-69
2023/04/29 06:29:26;;;;;;;25.05;12.50;;;9.80;99.90;;;;;;5011376;28;206785;-70
2023/04/29 06:31:53;;;;;;;30.42;12.18;;;9.90;99.90;;;;;;5079255;28;20056;-70
2023/04/29 06:34:19;;;;;;;22.92;12.38;;;10.00;99.90;;;;;;5022560;28;206065;-70
2023/04/29 06:36:45;;;;;;;24.60;11.50;;;10.00;99.90;;;;;;5069021;28;20057;-70
2023/04/29 06:39:11;;;;;;;21.10;11.95;;;10.00;99.90;;;;;;5007298;28;211949;-72
2023/04/29 06:41:37;;;;;;;23.17;11.70;;;10.00;99.90;;;;;;5067488;28;20061;-71
2023/04/29 06:44:03;;;;;;;21.13;11.85;;;10.20;99.90;;;;;;5027979;28;213649;-71
2023/04/29 06:46:29;;;;;;;22.05;11.85;;;10.30;99.90;;;;;;5076167;28;20056;-71
2023/04/29 06:48:56;;;;;;;22.63;11.75;;;10.50;99.90;;;;;;5017362;28;215875;-71
2023/04/29 06:51:22;;;;;;;23.08;11.85;;;10.40;99.90;;;;;;5065701;28;20051;-71
2023/04/29 06:53:48;;;;;;;18.95;10.93;;;10.70;99.90;;;;;;5021048;28;210470;-71
2023/04/29 06:56:14;;;;;;;19.10;10.93;;;11.10;99.90;;;;;;5061543;28;20064;-71
2023/04/29 06:58:40;;;;;;;17.90;10.77;;;11.60;99.90;;;;;;5001715;28;207011;-71
2023/04/29 07:01:07;;;;;;;20.33;10.45;;;11.90;99.90;;;;;;5088727;28;20048;-72
2023/04/29 07:03:33;;;;;;;18.65;9.27;;;12.30;99.90;;;;;;5013655;28;213644;-72
2023/04/29 07:05:59;;;;;;;18.25;9.10;;;12.20;99.90;;;;;;5057187;28;20068;-71
2023/04/29 07:08:27;;;;;;;18.35;9.98;;;12.40;99.90;;;;;;5020875;28;219264;-70
2023/04/29 07:10:55;;;;;;;17.30;9.43;;;12.60;99.90;;;;;;5078235;28;20548;-70
2023/04/29 07:13:21;;;;;;;16.00;8.88;;;12.80;99.90;;;;;;5027697;28;212429;-72
2023/04/29 07:15:47;;;;;;;15.63;9.52;;;12.70;99.90;;;;;;5062267;28;20048;-71
2023/04/29 07:18:14;;;;;;;16.50;8.53;;;13.00;99.90;;;;;;5011801;28;236656;-71
2023/04/29 07:20:40;;;;;;;14.95;8.55;;;13.20;99.90;;;;;;5062409;28;20059;-72
2023/04/29 07:23:06;;;;;;;14.88;8.50;;;13.40;99.90;;;;;;5039161;27;234131;-72
2023/04/29 07:25:33;;;;;;;16.02;8.52;;;13.40;99.90;;;;;;5060347;28;267035;-72
2023/04/29 07:27:59;;;;;;;13.88;8.32;;;13.60;99.90;;;;;;5058151;28;20045;-71
2023/04/29 07:30:25;;;;;;;14.63;8.43;;;13.80;99.90;;;;;;5006119;28;207328;-70
2023/04/29 07:32:51;;;;;;;16.65;8.82;;;14.10;99.90;;;;;;5059800;28;20048;-71
2023/04/29 07:35:17;;;;;;;14.50;7.63;;;14.30;99.90;;;;;;5003636;28;220020;-68
2023/04/29 07:37:44;;;;;;;13.57;8.10;;;14.60;99.90;;;;;;5061430;28;20135;-66
2023/04/29 07:40:10;;;;;;;17.85;8.80;;;14.50;99.90;;;;;;5020783;28;210349;-69
2023/04/29 07:42:37;;;;;;;14.35;8.45;;;14.50;99.90;;;;;;5080281;28;20052;-67
2023/04/29 07:45:04;;;;;;;15.25;7.95;;;14.60;99.90;;;;;;5005850;28;215658;-69
2023/04/29 07:47:30;;;;;;;17.17;8.75;;;14.80;99.90;;;;;;5075002;28;20490;-66
2023/04/29 07:49:56;;;;;;;17.08;8.93;;;14.80;99.90;;;;;;5015597;28;219542;-65
2023/04/29 07:52:22;;;;;;;19.10;8.30;;;15.00;99.90;;;;;;5074943;28;20048;-69
2023/04/29 07:54:48;;;;;;;15.75;8.10;;;15.00;99.90;;;;;;4997216;28;229991;-70
2023/04/29 07:57:15;;;;;;;16.20;7.72;;;15.00;99.90;;;;;;5067069;28;20063;-69
2023/04/29 07:59:41;;;;;;;17.33;8.40;;;15.00;99.90;;;;;;4989547;28;241990;-71
2023/04/29 08:02:07;;;;;;;16.77;7.97;;;14.80;99.90;;;;;;5066737;28;20502;-69
2023/04/29 08:04:33;;;;;;;14.10;7.10;;;14.90;99.90;;;;;;5019391;28;213151;-69
2023/04/29 08:06:59;;;;;;;16.13;7.72;;;15.10;99.90;;;;;;5078173;28;20060;-68
2023/04/29 08:09:25;;;;;;;14.05;7.45;;;15.40;99.90;;;;;;5011185;28;211471;-68
2023/04/29 08:11:51;;;;;;;13.70;7.05;;;15.60;99.90;;;;;;5072529;28;20055;-70
2023/04/29 08:14:17;;;;;;;15.70;7.20;;;16.00;99.90;;;;;;5018246;28;208177;-69
2023/04/29 08:16:43;;;;;;;15.93;6.43;;;15.90;99.90;;;;;;5076602;28;20095;-70
2023/04/29 08:19:10;;;;;;;14.18;6.82;;;15.50;99.90;;;;;;5021539;28;210586;-72
2023/04/29 08:21:36;;;;;;;16.17;6.80;;;15.70;99.90;;;;;;5063074;28;20078;-68
2023/04/29 08:24:02;;;;;;;12.20;6.60;;;15.90;99.90;;;;;;5020355;28;226618;-69
2023/04/29 08:26:29;;;;;;;14.38;7.15;;;16.30;99.90;;;;;;5072732;28;20524;-70
2023/04/29 08:28:55;;;;;;;15.40;6.40;;;16.50;99.90;;;;;;5016170;28;209837;-69
2023/04/29 08:31:21;;;;;;;11.20;6.18;;;16.90;99.90;;;;;;5067091;28;20056;-69
2023/04/29 08:33:48;;;;;;;15.38;6.07;;;17.60;99.90;;;;;;5021928;28;211954;-70
2023/04/29 08:36:14;;;;;;;13.95;6.07;;;17.40;99.90;;;;;;5076601;28;20052;-70
2023/04/29 08:38:41;;;;;;;16.65;6.35;;;17.80;99.90;;;;;;5007965;28;210482;-70
2023/04/29 08:41:11;;;;;;;11.55;5.57;;;17.60;99.90;;;;;;5064837;28;20461;-70
2023/04/29 08:43:39;;;;;;;13.45;5.70;;;17.80;99.90;;;;;;5004310;28;216437;-71
2023/04/29 08:46:06;;;;;;;14.50;5.88;;;17.00;99.00;;;;;;5040778;28;20064;-70
2023/04/29 08:48:33;;;;;;;13.43;5.72;;;16.00;99.90;;;;;;5032594;28;197197;-70
2023/04/29 08:51:01;;;;;;;14.57;5.80;;;16.50;99.90;;;;;;5081359;28;20055;-70
2023/04/29 08:53:27;;;;;;;13.20;6.20;;;17.40;99.90;;;;;;5025299;28;225810;-70
2023/04/29 08:55:55;;;;;;;18.90;6.20;;;17.90;99.90;;;;;;5076636;28;20044;-70
2023/04/29 08:58:23;;;;;;;13.65;5.88;;;17.60;99.00;;;;;;5004270;28;211737;-70
2023/04/29 09:00:49;;;;;;;16.02;6.20;;;18.10;99.90;;;;;;5060024;28;20056;-70
2023/04/29 09:03:34;;;;;;;12.65;5.85;;;18.20;99.90;;;;;;5013139;28;210543;-70
2023/04/29 09:06:02;;;;;;;12.43;6.05;;;18.10;99.80;;;;;;5084333;28;20049;-71
2023/04/29 09:08:29;;;;;;;14.35;6.47;;;17.50;99.80;;;;;;4998246;28;234556;-71
2023/04/29 09:10:56;;;;;;;13.50;6.05;;;17.20;99.90;;;;;;5058803;28;20056;-69
2023/04/29 09:13:27;;;;;;;16.48;6.70;;;17.30;99.90;;;;;;5005821;28;218486;-70
2023/04/29 09:15:54;;;;;;;15.70;6.43;;;17.70;99.90;;;;;;5056051;28;20052;-69
2023/04/29 09:18:42;;;;;;;15.48;6.20;;;16.90;98.60;;;;;;5007166;28;210335;-69
2023/04/29 09:21:22;;;;;;;15.65;6.22;;;16.40;98.60;;;;;;5070624;28;20518;-71
2023/04/29 09:23:56;;;;;;;13.75;6.35;;;15.70;99.90;;;;;;5021107;28;224174;-71
2023/04/29 09:26:23;;;;;;;13.23;6.25;;;15.50;99.90;;;;;;5073871;28;20056;-71
2023/04/29 09:29:17;;;;;;;15.35;6.20;;;15.90;99.20;;;;;;5012502;28;207096;-71
2023/04/29 09:31:44;;;;;;;13.73;5.80;;;16.40;98.50;;;;;;5064612;28;20051;-70
2023/04/29 09:34:11;;;;;;;12.75;6.13;;;17.30;99.90;;;;;;5008552;28;213891;-70
2023/04/29 09:36:53;;;;;;;14.07;6.05;;;18.20;99.90;;;;;;5071474;28;20793;-70
2023/04/29 09:39:21;;;;;;;13.25;6.22;;;18.90;97.40;;;;;;5033074;28;48597;-71
2023/04/29 09:41:54;;;;;;;15.23;5.88;;;18.60;96.30;;;;;;5079074;28;20060;-71
2023/04/29 09:44:25;;;;;;;13.35;6.35;;;18.90;97.60;;;;;;4997870;28;213177;-69
2023/04/29 09:47:02;;;;;;;13.63;5.93;;;18.90;97.60;;;;;;5048949;28;20059;-69
2023/04/29 09:49:31;;;;;;;14.23;6.28;;;19.20;96.30;;;;;;4994516;28;215557;-70
2023/04/29 09:51:59;;;;;;;13.45;6.07;;;19.90;97.70;;;;;;5062553;28;20530;-70
2023/04/29 09:54:27;;;;;;;11.90;5.65;;;20.30;96.00;;;;;;5008969;28;209437;-71
2023/04/29 09:56:55;;;;;;;13.73;5.80;;;19.20;96.30;;;;;;5062205;28;20059;-70
2023/04/29 09:59:22;;;;;;;13.35;6.07;;;19.10;94.90;;;;;;4994508;28;214359;-69
2023/04/29 10:01:50;;;;;;;11.55;5.40;;;19.80;96.00;;;;;;5063214;28;20064;-70
2023/04/29 10:04:18;;;;;;;10.48;5.07;;;20.30;95.00;;;;;;5010156;28;211319;-70
2023/04/29 10:06:47;;;;;;;13.60;5.25;;;20.50;92.60;;;;;;5054433;28;20067;-69
2023/04/29 10:09:15;;;;;;;11.48;5.35;;;20.60;93.70;;;;;;4994829;28;207554;-69
2023/04/29 10:11:45;;;;;;;12.02;5.40;;;20.80;92.60;;;;;;5064960;28;20699;-69
2023/04/29 10:14:14;;;;;;;11.68;5.78;;;20.30;93.20;;;;;;5009109;28;212240;-70
2023/04/29 10:16:50;;;;;;;10.30;5.20;;;20.30;91.60;;;;;;5073886;28;20067;-70
2023/04/29 10:19:34;;;;;;;11.98;5.50;;;20.20;91.50;;;;;;5018924;28;233433;-70
2023/04/29 10:22:11;;;;;;;12.45;5.00;;;20.40;90.30;;;;;;5070085;28;20502;-71
2023/04/29 10:24:38;;;;;;;12.25;4.80;;;20.50;90.80;;;;;;5001765;28;212463;-70
2023/04/29 10:27:11;;;;;;;11.43;5.60;;;20.80;92.90;;;;;;5060345;28;20056;-69
2023/04/29 10:29:38;;;;;;;13.57;5.93;;;21.30;92.00;;;;;;5022885;28;105637;-69
2023/04/29 10:32:09;;;;;;;13.63;5.30;;;21.80;92.20;;;;;;5064448;28;20070;-70
2023/04/29 10:34:38;;;;;;;13.50;5.00;;;21.80;90.80;;;;;;4988338;28;212371;-70
2023/04/29 10:37:08;;;;;;;10.98;4.65;;;21.50;91.70;;;;;;5052895;28;20784;-69
2023/04/29 10:40:06;;;;;;;12.87;4.87;;;22.30;91.60;;;;;;4998648;28;216818;-69
2023/04/29 10:42:43;;;;;;;13.38;4.97;;;21.80;88.70;;;;;;5048855;28;20029;-69
2023/04/29 10:45:28;;;;;;;10.68;4.43;;;21.50;90.40;;;;;;4989549;28;206489;-68
2023/04/29 10:48:01;;;;;;;10.38;4.53;;;21.30;90.80;;;;;;5050725;28;20092;-69
2023/04/29 10:50:50;;;;;;;10.32;4.13;;;21.70;90.80;;;;;;4994748;28;207709;-69
2023/04/29 10:53:18;;;;;;;12.75;4.22;;;21.40;88.20;;;;;;5015532;28;218492;-68
2023/04/29 10:56:02;;;;;;;12.52;4.07;;;21.50;91.00;;;;;;5072084;28;20060;-67
2023/04/29 10:58:44;;;;;;;12.88;4.45;;;21.50;88.50;;;;;;4994959;28;250744;-67
2023/04/29 11:01:15;;;;;;;11.85;3.80;;;21.60;89.20;;;;;;5069027;28;20070;-69
2023/04/29 11:03:53;;;;;;;10.52;3.78;;;20.60;88.90;;;;;;5009202;28;212575;-67
2023/04/29 11:06:25;;;;;;;11.20;4.00;;;20.40;90.10;;;;;;5046526;28;20055;-68
2023/04/29 11:09:02;;;;;;;12.23;4.07;;;21.20;90.60;;;;;;5013880;28;219283;-68
2023/04/29 11:11:44;;;;;;;9.65;3.53;;;21.30;90.00;;;;;;5076952;28;20998;-68
2023/04/29 11:14:12;;;;;;;9.80;4.10;;;21.70;90.70;;;;;;5013526;28;212296;-67
2023/04/29 11:16:48;;;;;;;13.25;4.40;;;21.40;90.10;;;;;;5067545;28;20059;-68
2023/04/29 11:19:15;;;;;;;12.60;4.40;;;20.80;90.30;;;;;;5019607;28;214878;-68
2023/04/29 11:21:44;;;;;;;11.00;4.45;;;21.00;90.10;;;;;;5071154;28;20060;-67
2023/04/29 11:24:11;;;;;;;10.48;4.47;;;20.90;89.80;;;;;;5013633;28;211806;-68
2023/04/29 11:26:37;;;;;;;10.27;4.43;;;21.10;90.80;;;;;;5067353;28;20068;-68
2023/04/29 11:29:04;;;;;;;11.23;4.03;;;21.10;88.40;;;;;;5019065;28;209903;-66
2023/04/29 11:31:31;;;;;;;11.63;4.53;;;20.80;88.60;;;;;;5079024;28;20052;-65
2023/04/29 11:33:58;;;;;;;10.35;4.32;;;21.10;90.60;;;;;;5007254;28;213280;-67
2023/04/29 11:36:26;;;;;;;10.48;3.83;;;21.90;90.70;;;;;;5061172;28;20056;-69
2023/04/29 11:38:52;;;;;;;11.20;4.00;;;21.70;89.30;;;;;;5011798;28;214951;-68
2023/04/29 11:41:20;;;;;;;9.57;3.70;;;21.90;89.80;;;;;;5090122;28;20056;-69
2023/04/29 11:43:46;;;;;;;8.90;3.38;;;21.70;88.60;;;;;;5030322;28;215014;-69
2023/04/29 11:46:14;;;;;;;10.60;3.60;;;20.90;88.60;;;;;;5084703;28;20063;-68
2023/04/29 11:48:47;;;;;;;9.77;3.70;;;20.60;89.10;;;;;;5019261;28;212619;-68
2023/04/29 11:51:15;;;;;;;10.00;3.40;;;21.10;90.40;;;;;;5076313;28;20052;-68
2023/04/29 11:53:41;;;;;;;9.65;3.28;;;20.70;89.00;;;;;;5020242;28;213779;-68
2023/04/29 11:56:09;;;;;;;10.65;3.08;;;20.40;87.10;;;;;;5063409;28;20063;-68
2023/04/29 11:58:35;;;;;;;10.32;3.08;;;20.40;87.40;;;;;;4997400;28;218530;-67
2023/04/29 12:01:03;;;;;;;8.45;2.53;;;20.40;85.80;;;;;;5059140;28;20052;-67
2023/04/29 12:03:31;;;;;;;9.38;2.70;;;21.20;87.20;;;;;;5011803;28;213345;-67
2023/04/29 12:05:57;;;;;;;8.90;2.53;;;21.70;85.80;;;;;;5077674;28;20052;-68
2023/04/29 12:08:26;;;;;;;9.45;2.80;;;21.00;86.20;;;;;;5021555;28;209672;-67
2023/04/29 12:10:54;;;;;;;7.03;2.25;;;21.00;86.40;;;;;;5057991;28;20064;-69
2023/04/29 12:13:22;;;;;;;9.32;2.60;;;20.70;84.90;;;;;;5010947;28;214433;-68
2023/04/29 12:15:50;;;;;;;9.30;2.38;;;20.40;85.60;;;;;;5024119;28;20614;-68
2023/04/29 12:18:22;;;;;;;10.40;2.50;;;20.30;85.80;;;;;;4989172;28;207807;-68
2023/04/29 12:20:51;;;;;;;9.52;2.25;;;20.40;83.90;;;;;;5045402;28;20058;-67
2023/04/29 12:23:22;;;;;;;11.07;2.53;;;20.20;85.90;;;;;;5012258;28;219401;-68
2023/04/29 12:25:53;;;;;;;8.20;2.22;;;20.30;83.90;;;;;;5067797;28;20053;-68
2023/04/29 12:28:20;;;;;;;10.23;2.83;;;19.90;84.80;;;;;;4999901;28;213757;-67
2023/04/29 12:30:47;;;;;;;7.55;2.00;;;19.90;84.10;;;;;;5054822;28;20052;-69
2023/04/29 12:33:20;;;;;;;9.27;2.28;;;19.90;84.30;;;;;;5015770;28;213633;-68
2023/04/29 12:35:49;;;;;;;7.75;2.22;;;19.80;86.20;;;;;;5062952;28;20060;-69
2023/04/29 12:38:19;;;;;;;10.20;2.87;;;19.60;85.50;;;;;;5019061;28;210327;-69